createdAt,value
2023-05-22T00:00:56.784Z,101300.09
2023-05-22T00:02:02.296Z,101295.72
2023-05-22T00:03:07.826Z,101296.83
2023-05-22T00:04:13.512Z,101296.55
2023-05-22T00:05:19.104Z,101296.89
2023-05-22T00:06:24.795Z,101295.08
2023-05-22T00:07:31.368Z,101294.22
2023-05-22T00:08:36.863Z,101290.25
2023-05-22T00:09:42.320Z,101296.97
2023-05-22T00:10:47.806Z,101292.52
2023-05-22T00:11:53.264Z,101289.84
2023-05-22T00:12:58.790Z,101294.37
2023-05-22T00:14:04.321Z,101293.03
2023-05-22T00:15:09.791Z,101291.25
2023-05-22T00:16:15.242Z,101301.5
2023-05-22T00:17:20.845Z,101296.13
2023-05-22T00:18:26.574Z,101298.3
2023-05-22T00:19:32.616Z,101297.76
2023-05-22T00:20:38.551Z,101297.76
2023-05-22T00:21:44.721Z,101293.28
2023-05-22T00:22:50.208Z,101304.46
2023-05-22T00:23:55.634Z,101307.46
2023-05-22T00:25:01.109Z,101301.62
2023-05-22T00:26:06.545Z,101295.84
2023-05-22T00:27:11.993Z,101298.07
2023-05-22T00:28:17.459Z,101298.07
2023-05-22T00:29:22.912Z,101299.41
2023-05-22T00:30:28.348Z,101300.86
2023-05-22T00:31:33.807Z,101294.56
2023-05-22T00:32:39.347Z,101295.97
2023-05-22T00:33:44.964Z,101300.44
2023-05-22T00:34:50.549Z,101301.69
2023-05-22T00:35:56.084Z,101296.48
2023-05-22T00:37:01.709Z,101293.45
2023-05-22T00:38:07.248Z,101290.77
2023-05-22T00:39:12.766Z,101295.27
2023-05-22T00:40:18.252Z,101295.38
2023-05-22T00:41:23.774Z,101294.8
2023-05-22T00:42:29.260Z,101292.69
2023-05-22T00:43:34.727Z,101299.81
2023-05-22T00:44:40.214Z,101297.61
2023-05-22T00:45:45.691Z,101295.78
2023-05-22T00:46:51.222Z,101294.45
2023-05-22T00:47:57.098Z,101295.27
2023-05-22T00:49:02.698Z,101294.86
2023-05-22T00:50:08.206Z,101288.22
2023-05-22T00:51:13.679Z,101294.52
2023-05-22T00:52:19.161Z,101286.05
2023-05-22T00:53:24.682Z,101289.56
2023-05-22T00:54:30.389Z,101288.22
2023-05-22T00:55:35.843Z,101287.87
2023-05-22T00:56:41.545Z,101285.29
2023-05-22T00:57:47.034Z,101289.73
2023-05-22T00:58:52.543Z,101287.8
2023-05-22T00:59:58.073Z,101285.19
2023-05-22T01:01:03.552Z,101288.73
2023-05-22T01:02:09.386Z,101286.11
2023-05-22T01:03:15.222Z,101285.63
2023-05-22T01:04:20.961Z,101283.84
2023-05-22T01:05:26.421Z,101281.61
2023-05-22T01:06:31.897Z,101282.03
2023-05-22T01:07:37.344Z,101284.3
2023-05-22T01:08:42.879Z,101282.44
2023-05-22T01:09:48.341Z,101278
2023-05-22T01:10:53.795Z,101279.92
2023-05-22T01:11:59.276Z,101279.41
2023-05-22T01:13:04.861Z,101280.81
2023-05-22T01:14:10.422Z,101282.03
2023-05-22T01:15:15.935Z,101285.29
2023-05-22T01:16:21.472Z,101281.68
2023-05-22T01:17:27.059Z,101291.55
2023-05-22T01:18:32.600Z,101287.45
2023-05-22T01:19:38.177Z,101289.66
2023-05-22T01:20:43.684Z,101290.84
2023-05-22T01:21:52.275Z,101286.47
2023-05-22T01:22:57.804Z,101286.88
2023-05-22T01:24:03.270Z,101294.86
2023-05-22T01:25:08.760Z,101285.06
2023-05-22T01:26:14.284Z,101285.47
2023-05-22T01:27:19.775Z,101286.4
2023-05-22T01:28:25.270Z,101284.13
2023-05-22T01:29:30.787Z,101291.7
2023-05-22T01:30:36.315Z,101289.08
2023-05-22T01:31:42.012Z,101284.55
2023-05-22T01:32:47.620Z,101288.67
2023-05-22T01:33:53.479Z,101287.67
2023-05-22T01:34:59.431Z,101285.06
2023-05-22T01:36:04.980Z,101288.09
2023-05-22T01:37:10.460Z,101288.16
2023-05-22T01:38:15.910Z,101285.13
2023-05-22T01:39:21.405Z,101284.2
2023-05-22T01:40:26.976Z,101287.16
2023-05-22T01:41:32.465Z,101288.09
2023-05-22T01:42:37.969Z,101281.45
2023-05-22T01:43:43.403Z,101285.88
2023-05-22T01:44:48.873Z,101282.38
2023-05-22T01:45:54.601Z,101280.52
2023-05-22T01:47:00.148Z,101287.73
2023-05-22T01:48:05.711Z,101288.56
2023-05-22T01:49:11.258Z,101286.33
2023-05-22T01:50:16.708Z,101288.56
2023-05-22T01:51:22.157Z,101281.95
2023-05-22T01:52:27.642Z,101281.52
2023-05-22T01:53:33.096Z,101283.37
2023-05-22T01:54:38.539Z,101288.73
2023-05-22T01:55:44.064Z,101285.98
2023-05-22T01:56:49.528Z,101288.22
2023-05-22T01:57:55.002Z,101283.84
2023-05-22T01:59:00.669Z,101284.78
2023-05-22T02:00:06.745Z,101282.09
2023-05-22T02:01:12.529Z,101280.27
2023-05-22T02:02:18.074Z,101278
2023-05-22T02:03:27.141Z,101279.76
2023-05-22T02:04:32.880Z,101279.41
2023-05-22T02:05:38.347Z,101286.11
2023-05-22T02:06:43.828Z,101279.83
2023-05-22T02:07:49.317Z,101275.9
2023-05-22T02:08:54.940Z,101283.02
2023-05-22T02:10:00.454Z,101283.02
2023-05-22T02:11:05.901Z,101280.27
2023-05-22T02:12:11.380Z,101279
2023-05-22T02:13:16.896Z,101274.05
2023-05-22T02:14:22.399Z,101274.97
2023-05-22T02:15:28.094Z,101275.9
2023-05-22T02:16:33.628Z,101274.97
2023-05-22T02:17:39.150Z,101280.69
2023-05-22T02:18:45.197Z,101279.41
2023-05-22T02:19:50.744Z,101276.31
2023-05-22T02:20:56.221Z,101271.02
2023-05-22T02:22:01.702Z,101278.48
2023-05-22T02:23:07.244Z,101271.88
2023-05-22T02:24:12.749Z,101274.56
2023-05-22T02:25:18.874Z,101270.53
2023-05-22T02:26:24.382Z,101272.29
2023-05-22T02:27:29.840Z,101275.45
2023-05-22T02:28:35.334Z,101276.8
2023-05-22T02:29:40.772Z,101271.53
2023-05-22T02:30:46.244Z,101267.41
2023-05-22T02:31:51.736Z,101278.14
2023-05-22T02:32:57.244Z,101269.26
2023-05-22T02:34:02.787Z,101269.67
2023-05-22T02:35:08.246Z,101274.63
2023-05-22T02:36:13.702Z,101262.2
2023-05-22T02:37:19.215Z,101268.91
2023-05-22T02:38:24.676Z,101266.23
2023-05-22T02:39:30.137Z,101265.37
2023-05-22T02:40:35.598Z,101263.96
2023-05-22T02:41:41.313Z,101261.8
2023-05-22T02:42:46.830Z,101255.98
2023-05-22T02:43:52.317Z,101263.13
2023-05-22T02:44:57.791Z,101263.65
2023-05-22T02:46:03.338Z,101261.86
2023-05-22T02:47:08.924Z,101257.88
2023-05-22T02:48:14.477Z,101255.56
2023-05-22T02:49:20.022Z,101256.5
2023-05-22T02:50:25.472Z,101256.94
2023-05-22T02:51:30.992Z,101259.11
2023-05-22T02:52:36.639Z,101253.02
2023-05-22T02:53:42.079Z,101254.73
2023-05-22T02:54:47.573Z,101252.89
2023-05-22T02:55:53.043Z,101252.41
2023-05-22T02:56:58.628Z,101251.89
2023-05-22T02:58:04.081Z,101254.58
2023-05-22T02:59:09.538Z,101252.41
2023-05-22T03:00:15.047Z,101252.89
2023-05-22T03:01:20.600Z,101254.64
2023-05-22T03:02:26.295Z,101249.72
2023-05-22T03:03:32.070Z,101251.48
2023-05-22T03:04:37.748Z,101258.19
2023-05-22T03:05:43.217Z,101253.81
2023-05-22T03:06:48.710Z,101249.79
2023-05-22T03:07:54.313Z,101255.19
2023-05-22T03:08:59.788Z,101251.13
2023-05-22T03:10:05.306Z,101244.88
2023-05-22T03:11:10.754Z,101253.43
2023-05-22T03:12:16.238Z,101239.67
2023-05-22T03:13:21.747Z,101247.72
2023-05-22T03:14:27.234Z,101252.09
2023-05-22T03:15:32.725Z,101249
2023-05-22T03:16:38.317Z,101246.18
2023-05-22T03:17:43.839Z,101243.63
2023-05-22T03:18:49.420Z,101242.36
2023-05-22T03:19:54.920Z,101246.31
2023-05-22T03:21:00.357Z,101245.39
2023-05-22T03:22:05.821Z,101234.79
2023-05-22T03:23:11.335Z,101238.75
2023-05-22T03:24:16.793Z,101240.95
2023-05-22T03:25:22.324Z,101236
2023-05-22T03:26:27.774Z,101234.11
2023-05-22T03:27:33.264Z,101235.31
2023-05-22T03:28:38.839Z,101238
2023-05-22T03:29:44.434Z,101242.44
2023-05-22T03:30:49.916Z,101240.68
2023-05-22T03:31:55.623Z,101247.87
2023-05-22T03:33:01.152Z,101244.77
2023-05-22T03:34:06.923Z,101252.23
2023-05-22T03:35:12.572Z,101250.07
2023-05-22T03:36:18.024Z,101254.51
2023-05-22T03:37:23.514Z,101255.33
2023-05-22T03:38:28.971Z,101254.58
2023-05-22T03:39:34.466Z,101257.26
2023-05-22T03:40:40.562Z,101253.58
2023-05-22T03:41:46.471Z,101261.21
2023-05-22T03:42:51.911Z,101258.46
2023-05-22T03:43:57.399Z,101264.24
2023-05-22T03:45:02.874Z,101256.27
2023-05-22T03:46:08.447Z,101261.63
2023-05-22T03:47:13.994Z,101257.47
2023-05-22T03:48:19.473Z,101252.94
2023-05-22T03:49:25.033Z,101265.7
2023-05-22T03:50:30.528Z,101263.19
2023-05-22T03:51:36.003Z,101257.3
2023-05-22T03:52:41.491Z,101254.69
2023-05-22T03:53:46.981Z,101264.94
2023-05-22T03:54:52.552Z,101258.3
2023-05-22T03:55:58.037Z,101263.87
2023-05-22T03:57:03.531Z,101263.02
2023-05-22T03:58:09.038Z,101259.98
2023-05-22T03:59:14.496Z,101263.44
2023-05-22T04:00:21.039Z,101258.58
2023-05-22T04:01:26.548Z,101263.44
2023-05-22T04:02:32.196Z,101254.48
2023-05-22T04:03:38.025Z,101260.16
2023-05-22T04:04:43.676Z,101261.91
2023-05-22T04:05:49.216Z,101254.39
2023-05-22T04:06:54.691Z,101249.38
2023-05-22T04:08:00.213Z,101248.83
2023-05-22T04:09:05.759Z,101251.76
2023-05-22T04:10:11.241Z,101246.75
2023-05-22T04:11:16.752Z,101248.2
2023-05-22T04:12:22.225Z,101248.41
2023-05-22T04:13:27.727Z,101245.12
2023-05-22T04:14:33.232Z,101248.86
2023-05-22T04:15:38.759Z,101247.59
2023-05-22T04:16:45.312Z,101247.23
2023-05-22T04:17:53.261Z,101249
2023-05-22T04:18:58.877Z,101249.92
2023-05-22T04:20:04.444Z,101242.87
2023-05-22T04:21:09.977Z,101253.11
2023-05-22T04:22:15.483Z,101246.83
2023-05-22T04:23:20.932Z,101248.23
2023-05-22T04:24:26.381Z,101251.42
2023-05-22T04:25:32.081Z,101247.81
2023-05-22T04:26:37.640Z,101246.48
2023-05-22T04:27:46.430Z,101245.27
2023-05-22T04:28:51.884Z,101242.94
2023-05-22T04:29:57.351Z,101239.36
2023-05-22T04:31:02.837Z,101241.59
2023-05-22T04:32:08.325Z,101240.6
2023-05-22T04:33:13.910Z,101246.06
2023-05-22T04:34:19.586Z,101250.43
2023-05-22T04:35:25.073Z,101251.42
2023-05-22T04:36:30.554Z,101246.48
2023-05-22T04:37:36.159Z,101244.21
2023-05-22T04:38:41.701Z,101249.22
2023-05-22T04:39:47.191Z,101247.05
2023-05-22T04:40:52.678Z,101248.11
2023-05-22T04:41:58.185Z,101250.73
2023-05-22T04:43:03.700Z,101251.72
2023-05-22T04:44:09.269Z,101254.47
2023-05-22T04:45:15.003Z,101247.25
2023-05-22T04:46:20.474Z,101255.8
2023-05-22T04:47:26.005Z,101249.52
2023-05-22T04:48:31.536Z,101251.72
2023-05-22T04:49:37.031Z,101249.58
2023-05-22T04:50:42.987Z,101257.63
2023-05-22T04:51:48.518Z,101251.84
2023-05-22T04:52:53.984Z,101249.23
2023-05-22T04:53:59.482Z,101246.23
2023-05-22T04:55:07.321Z,101248.41
2023-05-22T04:56:21.399Z,101250.58
2023-05-22T04:57:40.960Z,101246.65
2023-05-22T04:58:46.417Z,101243.87
2023-05-22T04:59:51.918Z,101240.87
2023-05-22T05:00:57.473Z,101245.72
2023-05-22T05:02:02.997Z,101239.44
2023-05-22T05:03:08.669Z,101243.05
2023-05-22T05:04:14.490Z,101243.05
2023-05-22T05:05:19.950Z,101240.02
2023-05-22T05:06:25.453Z,101238.67
2023-05-22T05:07:30.991Z,101240.53
2023-05-22T05:08:36.456Z,101237.84
2023-05-22T05:09:41.922Z,101243.69
2023-05-22T05:10:47.404Z,101244.27
2023-05-22T05:11:52.895Z,101237.56
2023-05-22T05:12:58.348Z,101241.86
2023-05-22T05:14:03.834Z,101243.27
2023-05-22T05:15:09.342Z,101246.44
2023-05-22T05:16:14.907Z,101246.94
2023-05-22T05:17:20.514Z,101241.52
2023-05-22T05:18:25.975Z,101246.53
2023-05-22T05:19:31.718Z,101248.28
2023-05-22T05:20:41.352Z,101248.28
2023-05-22T05:21:46.902Z,101241.52
2023-05-22T05:22:52.423Z,101247.36
2023-05-22T05:23:57.923Z,101237.97
2023-05-22T05:25:03.462Z,101247.94
2023-05-22T05:26:08.950Z,101242.5
2023-05-22T05:27:14.398Z,101242
2023-05-22T05:28:19.874Z,101247.77
2023-05-22T05:29:25.352Z,101243.84
2023-05-22T05:30:30.866Z,101250.55
2023-05-22T05:31:36.390Z,101253.64
2023-05-22T05:32:42.012Z,101244.27
2023-05-22T05:33:47.647Z,101247.52
2023-05-22T05:34:53.184Z,101251.95
2023-05-22T05:35:58.951Z,101251.54
2023-05-22T05:37:04.646Z,101250.67
2023-05-22T05:38:10.114Z,101252.53
2023-05-22T05:39:15.583Z,101255.62
2023-05-22T05:40:21.072Z,101256.55
2023-05-22T05:41:26.535Z,101254.28
2023-05-22T05:42:32.022Z,101252.53
2023-05-22T05:43:37.935Z,101256.62
2023-05-22T05:44:43.472Z,101256.62
2023-05-22T05:45:48.995Z,101256.97
2023-05-22T05:46:54.524Z,101259.64
2023-05-22T05:48:00.230Z,101260.13
2023-05-22T05:49:05.818Z,101256.97
2023-05-22T05:50:11.295Z,101255.34
2023-05-22T05:51:16.755Z,101254.41
2023-05-22T05:52:22.795Z,101260.57
2023-05-22T05:53:28.277Z,101258.38
2023-05-22T05:54:33.752Z,101255.62
2023-05-22T05:55:39.254Z,101254.35
2023-05-22T05:56:44.700Z,101258.44
2023-05-22T05:57:50.152Z,101264.24
2023-05-22T05:58:55.952Z,101256.11
2023-05-22T06:00:02.512Z,101259.3
2023-05-22T06:01:10.328Z,101256.2
2023-05-22T06:02:15.957Z,101255.75
2023-05-22T06:03:21.655Z,101256.11
2023-05-22T06:04:27.314Z,101254.86
2023-05-22T06:05:32.837Z,101249.56
2023-05-22T06:06:38.390Z,101255.75
2023-05-22T06:07:43.857Z,101259.3
2023-05-22T06:08:50.327Z,101252.66
2023-05-22T06:09:55.821Z,101251.67
2023-05-22T06:11:01.327Z,101245.96
2023-05-22T06:12:06.867Z,101251.67
2023-05-22T06:13:14.517Z,101248.23
2023-05-22T06:14:19.981Z,101247.3
2023-05-22T06:15:25.418Z,101253.37
2023-05-22T06:16:31.058Z,101251.89
2023-05-22T06:17:36.768Z,101251.09
2023-05-22T06:18:42.258Z,101248.13
2023-05-22T06:19:47.853Z,101247.7
2023-05-22T06:20:53.325Z,101249.33
2023-05-22T06:21:58.796Z,101244.03
2023-05-22T06:23:04.233Z,101242.76
2023-05-22T06:24:09.696Z,101237.15
2023-05-22T06:25:15.141Z,101242
2023-05-22T06:26:20.642Z,101233.95
2023-05-22T06:27:26.073Z,101239.83
2023-05-22T06:28:31.541Z,101237.91
2023-05-22T06:29:36.982Z,101239.31
2023-05-22T06:30:42.506Z,101238.73
2023-05-22T06:31:48.114Z,101240.94
2023-05-22T06:32:53.747Z,101243.2
2023-05-22T06:33:59.914Z,101239.53
2023-05-22T06:35:05.532Z,101234.72
2023-05-22T06:36:10.989Z,101236.06
2023-05-22T06:37:16.472Z,101241.77
2023-05-22T06:38:21.920Z,101241.29
2023-05-22T06:39:28.096Z,101239.09
2023-05-22T06:40:36.050Z,101239.38
2023-05-22T06:41:41.991Z,101242.05
2023-05-22T06:42:47.470Z,101244.73
2023-05-22T06:43:52.945Z,101240.2
2023-05-22T06:44:58.404Z,101240.2
2023-05-22T06:46:03.979Z,101238.86
2023-05-22T06:47:09.556Z,101241.06
2023-05-22T06:48:15.074Z,101237.88
2023-05-22T06:49:20.590Z,101243.81
2023-05-22T06:50:26.074Z,101242.81
2023-05-22T06:51:31.529Z,101244.16
2023-05-22T06:52:36.972Z,101242.41
2023-05-22T06:53:42.506Z,101242.81
2023-05-22T06:54:47.977Z,101246.36
2023-05-22T06:55:53.425Z,101241.89
2023-05-22T06:56:58.933Z,101245.08
2023-05-22T06:58:04.461Z,101242.75
2023-05-22T06:59:10.456Z,101236.97
2023-05-22T07:00:15.947Z,101242.23
2023-05-22T07:01:23.449Z,101240.83
2023-05-22T07:02:29.268Z,101244.57
2023-05-22T07:03:34.818Z,101232.09
2023-05-22T07:04:40.294Z,101241.47
2023-05-22T07:05:45.838Z,101237.04
2023-05-22T07:06:51.403Z,101234.77
2023-05-22T07:07:56.919Z,101239.78
2023-05-22T07:09:02.436Z,101235.7
2023-05-22T07:10:07.901Z,101237.52
2023-05-22T07:11:13.377Z,101234.02
2023-05-22T07:12:18.913Z,101238.09
2023-05-22T07:13:25.403Z,101230.91
2023-05-22T07:14:30.931Z,101228.72
2023-05-22T07:15:36.388Z,101231.33
2023-05-22T07:16:42.005Z,101228.59
2023-05-22T07:17:47.623Z,101229.98
2023-05-22T07:18:53.322Z,101237.62
2023-05-22T07:19:58.902Z,101230.05
2023-05-22T07:21:04.434Z,101229.64
2023-05-22T07:22:09.907Z,101230.98
2023-05-22T07:23:15.398Z,101231.14
2023-05-22T07:24:20.911Z,101230.56
2023-05-22T07:25:26.392Z,101235.92
2023-05-22T07:26:31.913Z,101233.66
2023-05-22T07:27:39.634Z,101233.25
2023-05-22T07:28:45.291Z,101232.83
2023-05-22T07:29:50.774Z,101233.83
2023-05-22T07:30:56.247Z,101236.5
2023-05-22T07:32:01.804Z,101240.53
2023-05-22T07:33:07.798Z,101237.27
2023-05-22T07:34:13.371Z,101243.55
2023-05-22T07:35:18.830Z,101230.63
2023-05-22T07:36:24.350Z,101235.06
2023-05-22T07:37:29.833Z,101237.75
2023-05-22T07:38:35.314Z,101234.72
2023-05-22T07:39:40.778Z,101238.73
2023-05-22T07:40:46.326Z,101231.27
2023-05-22T07:41:52.485Z,101237.84
2023-05-22T07:43:01.247Z,101233.03
2023-05-22T07:44:06.768Z,101235.99
2023-05-22T07:45:12.298Z,101237.27
2023-05-22T07:46:17.985Z,101237.75
2023-05-22T07:47:23.665Z,101244.45
2023-05-22T07:48:29.249Z,101237.84
2023-05-22T07:49:34.745Z,101234.3
2023-05-22T07:50:40.215Z,101240.08
2023-05-22T07:51:45.732Z,101236.41
2023-05-22T07:52:51.217Z,101241.19
2023-05-22T07:53:56.715Z,101230.16
2023-05-22T07:55:03.176Z,101235.35
2023-05-22T07:56:08.656Z,101237.62
2023-05-22T07:57:14.134Z,101241.19
2023-05-22T07:58:19.752Z,101232.26
2023-05-22T07:59:25.360Z,101235.7
2023-05-22T08:00:30.966Z,101234.94
2023-05-22T08:01:36.444Z,101234.08
2023-05-22T08:02:42.138Z,101225.55
2023-05-22T08:03:48.422Z,101233.08
2023-05-22T08:04:54.557Z,101230.41
2023-05-22T08:06:00.194Z,101230.91
2023-05-22T08:07:05.769Z,101239.53
2023-05-22T08:08:11.331Z,101231.91
2023-05-22T08:09:16.850Z,101230.05
2023-05-22T08:10:22.344Z,101235.52
2023-05-22T08:11:27.809Z,101240.3
2023-05-22T08:12:33.282Z,101237.27
2023-05-22T08:13:39.008Z,101234.02
2023-05-22T08:14:45.232Z,101229.98
2023-05-22T08:15:50.731Z,101228.14
2023-05-22T08:17:06.008Z,101232.16
2023-05-22T08:18:12.120Z,101232.16
2023-05-22T08:19:18.105Z,101230.91
2023-05-22T08:20:23.984Z,101225.55
2023-05-22T08:21:29.614Z,101236.28
2023-05-22T08:22:35.239Z,101232.67
2023-05-22T08:23:40.894Z,101234.84
2023-05-22T08:24:46.412Z,101233.95
2023-05-22T08:25:51.872Z,101234.3
2023-05-22T08:26:57.350Z,101231.61
2023-05-22T08:28:02.915Z,101223.06
2023-05-22T08:29:08.666Z,101232.86
2023-05-22T08:30:14.139Z,101230.63
2023-05-22T08:31:19.755Z,101232.44
2023-05-22T08:32:25.407Z,101231.96
2023-05-22T08:33:33.324Z,101229.77
2023-05-22T08:34:38.845Z,101232.86
2023-05-22T08:35:44.352Z,101226.6
2023-05-22T08:36:49.854Z,101231.45
2023-05-22T08:37:55.327Z,101226.6
2023-05-22T08:39:00.837Z,101233.3
2023-05-22T08:40:06.392Z,101226.16
2023-05-22T08:41:11.933Z,101220.8
2023-05-22T08:42:17.421Z,101231.52
2023-05-22T08:43:22.977Z,101229.77
2023-05-22T08:44:28.467Z,101223.98
2023-05-22T08:45:34.134Z,101221.72
2023-05-22T08:46:39.875Z,101221.3
2023-05-22T08:47:45.596Z,101227.14
2023-05-22T08:48:53.608Z,101221.3
2023-05-22T08:49:59.104Z,101224.91
2023-05-22T08:51:04.634Z,101219.1
2023-05-22T08:52:10.296Z,101217.86
2023-05-22T08:53:15.791Z,101223.64
2023-05-22T08:54:21.269Z,101216.94
2023-05-22T08:55:26.788Z,101210.81
2023-05-22T08:56:33.514Z,101216.02
2023-05-22T08:57:43.925Z,101209.82
2023-05-22T08:58:49.515Z,101203.12
2023-05-22T08:59:55.046Z,101211.64
2023-05-22T09:01:00.638Z,101212.91
2023-05-22T09:02:08.125Z,101212.5
2023-05-22T09:03:13.756Z,101212.05
2023-05-22T09:04:19.479Z,101209.72
2023-05-22T09:05:24.944Z,101205.35
2023-05-22T09:06:30.414Z,101208.03
2023-05-22T09:07:35.961Z,101202.67
2023-05-22T09:08:41.451Z,101205.93
2023-05-22T09:09:47.148Z,101206.28
2023-05-22T09:10:52.718Z,101206.34
2023-05-22T09:11:58.162Z,101198.75
2023-05-22T09:13:03.682Z,101196.42
2023-05-22T09:14:09.401Z,101203.12
2023-05-22T09:15:14.900Z,101204.88
2023-05-22T09:16:20.466Z,101197.25
2023-05-22T09:17:26.142Z,101201.68
2023-05-22T09:18:31.785Z,101200.92
2023-05-22T09:19:37.886Z,101195.14
2023-05-22T09:20:44.000Z,101190.61
2023-05-22T09:21:49.666Z,101194.73
2023-05-22T09:22:55.122Z,101199.16
2023-05-22T09:24:00.634Z,101191.12
2023-05-22T09:25:06.560Z,101196.9
2023-05-22T09:26:12.065Z,101190.2
2023-05-22T09:27:17.571Z,101191.53
2023-05-22T09:28:23.088Z,101186.24
2023-05-22T09:29:28.597Z,101195.63
2023-05-22T09:30:34.037Z,101194.63
2023-05-22T09:31:39.646Z,101186.75
2023-05-22T09:32:45.397Z,101185.34
2023-05-22T09:33:51.033Z,101185.41
2023-05-22T09:34:56.501Z,101181.33
2023-05-22T09:36:02.123Z,101187.27
2023-05-22T09:37:07.619Z,101179.64
2023-05-22T09:38:13.870Z,101188.92
2023-05-22T09:39:19.697Z,101185
2023-05-22T09:40:25.191Z,101180.12
2023-05-22T09:41:30.707Z,101183.66
2023-05-22T09:42:36.627Z,101181.91
2023-05-22T09:43:42.120Z,101179.55
2023-05-22T09:44:47.575Z,101187.1
2023-05-22T09:45:53.148Z,101178.13
2023-05-22T09:46:58.692Z,101184.08
2023-05-22T09:48:04.332Z,101180.56
2023-05-22T09:49:09.941Z,101179.64
2023-05-22T09:50:19.144Z,101181.81
2023-05-22T09:51:24.648Z,101171.59
2023-05-22T09:52:30.108Z,101175.2
2023-05-22T09:53:35.559Z,101170.33
2023-05-22T09:54:41.021Z,101171.95
2023-05-22T09:55:46.466Z,101174.28
2023-05-22T09:56:51.998Z,101172.17
2023-05-22T09:57:57.493Z,101173.07
2023-05-22T09:59:02.985Z,101167.36
2023-05-22T10:00:08.466Z,101160.31
2023-05-22T10:01:13.960Z,101160.31
2023-05-22T10:02:19.492Z,101165.61
2023-05-22T10:03:24.974Z,101163.34
2023-05-22T10:04:30.654Z,101159.19
2023-05-22T10:05:36.322Z,101157.09
2023-05-22T10:06:41.816Z,101163.78
2023-05-22T10:07:47.296Z,101154.82
2023-05-22T10:08:52.788Z,101158.42
2023-05-22T10:09:58.240Z,101154.23
2023-05-22T10:11:03.740Z,101156.09
2023-05-22T10:12:09.603Z,101154.23
2023-05-22T10:13:15.105Z,101152.08
2023-05-22T10:14:20.612Z,101153.89
2023-05-22T10:15:26.224Z,101149.39
2023-05-22T10:16:31.923Z,101154.31
2023-05-22T10:17:37.511Z,101149.39
2023-05-22T10:18:43.061Z,101156.44
2023-05-22T10:19:48.755Z,101149.74
2023-05-22T10:20:54.389Z,101148.81
2023-05-22T10:21:59.807Z,101148.88
2023-05-22T10:23:05.308Z,101158.67
2023-05-22T10:24:10.815Z,101151.49
2023-05-22T10:25:16.339Z,101154.66
2023-05-22T10:26:22.994Z,101142.69
2023-05-22T10:27:28.455Z,101141.7
2023-05-22T10:28:33.973Z,101143.11
2023-05-22T10:29:39.440Z,101139.56
2023-05-22T10:30:45.078Z,101139.5
2023-05-22T10:31:50.675Z,101140.08
2023-05-22T10:32:56.333Z,101118.13
2023-05-22T10:34:02.129Z,101126.09
2023-05-22T10:35:07.742Z,101123.42
2023-05-22T10:36:13.381Z,101126.61
2023-05-22T10:37:22.239Z,101124.76
2023-05-22T10:38:27.959Z,101126.09
2023-05-22T10:39:33.445Z,101124.34
2023-05-22T10:40:38.950Z,101125.62
2023-05-22T10:41:44.460Z,101122.08
2023-05-22T10:42:49.953Z,101120.33
2023-05-22T10:43:55.422Z,101111.77
2023-05-22T10:45:00.885Z,101119.23
2023-05-22T10:46:06.470Z,101110.88
2023-05-22T10:47:12.261Z,101113.11
2023-05-22T10:48:17.872Z,101110.02
2023-05-22T10:49:23.408Z,101110.94
2023-05-22T10:50:28.992Z,101099.3
2023-05-22T10:51:34.672Z,101102.39
2023-05-22T10:52:40.120Z,101104.24
2023-05-22T10:53:45.587Z,101109.09
2023-05-22T10:54:51.209Z,101110.88
2023-05-22T10:55:56.836Z,101104.59
2023-05-22T10:57:02.400Z,101091.6
2023-05-22T10:58:07.870Z,101105.93
2023-05-22T10:59:13.375Z,101094.45
2023-05-22T11:00:18.956Z,101098.37
2023-05-22T11:01:24.506Z,101104.66
2023-05-22T11:02:30.380Z,101104.66
2023-05-22T11:03:36.246Z,101103.31
2023-05-22T11:04:41.967Z,101098.02
2023-05-22T11:05:47.529Z,101094.93
2023-05-22T11:06:53.053Z,101103.73
2023-05-22T11:07:58.678Z,101098.88
2023-05-22T11:09:04.185Z,101104.66
2023-05-22T11:10:09.672Z,101100.22
2023-05-22T11:11:15.179Z,101100.63
2023-05-22T11:12:20.827Z,101095.69
2023-05-22T11:13:29.583Z,101102.39
2023-05-22T11:14:35.232Z,101102.39
2023-05-22T11:15:40.753Z,101089.84
2023-05-22T11:16:46.408Z,101099.64
2023-05-22T11:17:52.186Z,101088.16
2023-05-22T11:19:00.571Z,101097.47
2023-05-22T11:20:18.631Z,101093.94
2023-05-22T11:21:24.161Z,101099.71
2023-05-22T11:22:29.638Z,101097.47
2023-05-22T11:23:35.143Z,101086.3
2023-05-22T11:24:40.712Z,101093.11
2023-05-22T11:25:46.208Z,101089.5
2023-05-22T11:26:51.662Z,101098.47
2023-05-22T11:27:57.195Z,101088.64
2023-05-22T11:29:02.674Z,101096.61
2023-05-22T11:30:08.174Z,101089.16
2023-05-22T11:31:13.832Z,101089.09
2023-05-22T11:32:19.408Z,101094
2023-05-22T11:33:27.725Z,101090.42
2023-05-22T11:34:33.364Z,101099.3
2023-05-22T11:35:38.930Z,101090.91
2023-05-22T11:36:44.424Z,101086.89
2023-05-22T11:37:49.893Z,101082.45
2023-05-22T11:38:55.392Z,101083.72
2023-05-22T11:40:00.820Z,101086.23
2023-05-22T11:41:06.270Z,101083.56
2023-05-22T11:42:11.735Z,101075.11
2023-05-22T11:43:17.217Z,101086.23
2023-05-22T11:44:22.770Z,101080.81
2023-05-22T11:45:28.658Z,101076.79
2023-05-22T11:46:34.219Z,101075.45
2023-05-22T11:47:39.843Z,101073.66
2023-05-22T11:48:45.530Z,101072.77
2023-05-22T11:49:50.995Z,101075.86
2023-05-22T11:50:56.486Z,101071.84
2023-05-22T11:52:01.971Z,101066.07
2023-05-22T11:53:07.430Z,101066.66
2023-05-22T11:54:12.912Z,101064.86
2023-05-22T11:55:18.372Z,101067.89
2023-05-22T11:56:23.832Z,101066.48
2023-05-22T11:57:29.443Z,101064.63
2023-05-22T11:58:34.889Z,101067.83
2023-05-22T11:59:40.395Z,101064.28
2023-05-22T12:00:45.935Z,101062.46
2023-05-22T12:01:51.472Z,101056.24
2023-05-22T12:02:57.098Z,101059.02
2023-05-22T12:04:03.096Z,101059.37
2023-05-22T12:05:08.815Z,101054.84
2023-05-22T12:06:17.212Z,101053.08
2023-05-22T12:07:22.916Z,101053.15
2023-05-22T12:08:28.447Z,101047.72
2023-05-22T12:09:33.905Z,101050.4
2023-05-22T12:10:39.911Z,101044.28
2023-05-22T12:11:45.923Z,101049.12
2023-05-22T12:12:51.396Z,101052.73
2023-05-22T12:13:56.852Z,101043.87
2023-05-22T12:15:02.329Z,101045.11
2023-05-22T12:16:10.384Z,101043.28
2023-05-22T12:17:18.184Z,101047.79
2023-05-22T12:18:26.011Z,101045.2
2023-05-22T12:19:31.664Z,101045.52
2023-05-22T12:20:37.463Z,101039.41
2023-05-22T12:21:43.282Z,101040.67
2023-05-22T12:22:48.752Z,101037.06
2023-05-22T12:23:54.260Z,101040.27
2023-05-22T12:24:59.762Z,101035.31
2023-05-22T12:26:05.281Z,101034.8
2023-05-22T12:27:10.826Z,101031.64
2023-05-22T12:28:16.304Z,101032.98
2023-05-22T12:29:21.826Z,101032.98
2023-05-22T12:30:27.293Z,101032.98
2023-05-22T12:31:32.894Z,101031.64
2023-05-22T12:32:39.115Z,101029.44